Terminal Aerodrome Forecast
Issued by NWS

Home | Current Version | Previous Version | Text Only | Print | Product List | Glossary Off
Versions: 1 2 3 4 5 6 7 8 9 10 11 12 13 14 15 16 17 18

000
FTUS43 KABR 200500
TAFATY
TAF
KATY 200523Z 2006/2106 28007KT P6SM SCT150
     FM201700 27011KT P6SM SCT250
     FM202100 28020G30KT P6SM SCT250
     FM210000 33017KT P6SM SKC=

USA.gov is the U.S. government's official web portal to all federal, state and local government web resources and services.